createdAt,value
2022-11-15T00:01:34.560Z,100804.47
2022-11-15T00:04:08.051Z,100806.13
2022-11-15T00:06:38.300Z,100809.16
2022-11-15T00:09:08.835Z,100808.28
2022-11-15T00:11:38.904Z,100804.81
2022-11-15T00:14:09.479Z,100796.75
2022-11-15T00:16:39.502Z,100799.88
2022-11-15T00:19:13.041Z,100800.44
2022-11-15T00:21:43.552Z,100789.28
2022-11-15T00:24:14.457Z,100782.97
2022-11-15T00:26:44.917Z,100786.19
2022-11-15T00:29:15.379Z,100782.97
2022-11-15T00:31:45.368Z,100792.47
2022-11-15T00:34:18.437Z,100776.38
2022-11-15T00:36:48.547Z,100778.34
2022-11-15T00:39:19.028Z,100775.56
2022-11-15T00:41:49.230Z,100775.72
2022-11-15T00:44:19.581Z,100777.38
2022-11-15T00:46:49.631Z,100774.50
2022-11-15T00:49:22.583Z,100777.03
2022-11-15T00:51:52.712Z,100766.53
2022-11-15T00:54:23.059Z,100773.38
2022-11-15T00:56:53.159Z,100763.59
2022-11-15T00:59:23.570Z,100767.03
2022-11-15T01:01:53.593Z,100756.94
2022-11-15T01:04:26.625Z,100763.59
2022-11-15T01:06:56.708Z,100757.88
2022-11-15T01:09:27.382Z,100758.13
2022-11-15T01:11:57.511Z,100748.59
2022-11-15T01:14:27.911Z,100746.34
2022-11-15T01:16:57.936Z,100758.38
2022-11-15T01:19:30.942Z,100749.31
2022-11-15T01:22:00.950Z,100749.81
2022-11-15T01:24:31.687Z,100734.34
2022-11-15T01:27:01.723Z,100745.75
2022-11-15T01:29:32.147Z,100743.47
2022-11-15T01:32:02.312Z,100735.72
2022-11-15T01:34:35.311Z,100741.44
2022-11-15T01:37:05.557Z,100724.78
2022-11-15T01:39:35.854Z,100724.66
2022-11-15T01:42:06.473Z,100723.81
2022-11-15T01:44:50.474Z,100716.31
2022-11-15T01:47:23.254Z,100713.81
2022-11-15T01:50:01.153Z,100709.91
2022-11-15T01:52:33.929Z,100707.91
2022-11-15T01:55:09.487Z,100705.78
2022-11-15T01:57:39.931Z,100700.84
2022-11-15T02:00:11.831Z,100691.13
2022-11-15T02:02:42.175Z,100683.59
2022-11-15T02:05:15.739Z,100689.56
2022-11-15T02:07:45.934Z,100688.94
2022-11-15T02:10:20.645Z,100686.34
2022-11-15T02:12:52.120Z,100683.00
2022-11-15T02:15:22.965Z,100683.00
2022-11-15T02:18:06.899Z,100676.13
2022-11-15T02:20:48.173Z,100678.25
2022-11-15T02:23:49.707Z,100686.19
2022-11-15T02:26:52.866Z,100678.72
2022-11-15T02:29:32.427Z,100681.69
2022-11-15T02:32:11.695Z,100684.53
2022-11-15T02:34:54.999Z,100684.19
2022-11-15T02:37:33.723Z,100685.97
2022-11-15T02:40:13.230Z,100681.81
2022-11-15T02:43:06.963Z,100685.03
2022-11-15T02:45:43.189Z,100678.13
2022-11-15T02:48:17.305Z,100685.03
2022-11-15T02:50:48.970Z,100677.63
2022-11-15T02:53:19.414Z,100671.22
2022-11-15T02:55:51.976Z,100666.59
2022-11-15T02:58:45.621Z,100671.22
2022-11-15T03:01:23.375Z,100672.66
2022-11-15T03:04:07.255Z,100666.09
2022-11-15T03:06:46.815Z,100663.88
2022-11-15T03:09:31.860Z,100664.81
2022-11-15T03:12:07.290Z,100663.88
2022-11-15T03:14:40.693Z,100665.06
2022-11-15T03:17:18.993Z,100662.06
2022-11-15T03:19:54.552Z,100658.25
2022-11-15T03:22:28.288Z,100659.69
2022-11-15T03:25:02.616Z,100664.22
2022-11-15T03:27:39.524Z,100666.72
2022-11-15T03:30:12.525Z,100656.72
2022-11-15T03:32:48.227Z,100663.41
2022-11-15T03:35:24.314Z,100664.34
2022-11-15T03:38:01.433Z,100659.69
2022-11-15T03:40:38.281Z,100659.81
2022-11-15T03:43:14.157Z,100659.81
2022-11-15T03:45:51.160Z,100657.06
2022-11-15T03:48:26.639Z,100657.06
2022-11-15T03:51:00.044Z,100645.78
2022-11-15T03:53:33.044Z,100653.03
2022-11-15T03:56:03.641Z,100653.13
2022-11-15T03:58:33.662Z,100654.94
2022-11-15T04:01:04.063Z,100653.16
2022-11-15T04:03:34.593Z,100646.97
2022-11-15T04:06:08.189Z,100646.75
2022-11-15T04:08:38.169Z,100641.84
2022-11-15T04:11:08.480Z,100644.38
2022-11-15T04:13:38.450Z,100641.50
2022-11-15T04:16:09.020Z,100638.19
2022-11-15T04:18:39.038Z,100631.84
2022-11-15T04:21:24.581Z,100638.50
2022-11-15T04:24:15.466Z,100630.56
2022-11-15T04:26:45.833Z,100631.50
2022-11-15T04:29:28.250Z,100629.50
2022-11-15T04:31:58.574Z,100631.03
2022-11-15T04:34:28.600Z,100623.56
2022-11-15T04:37:14.338Z,100629.00
2022-11-15T04:39:44.810Z,100630.78
2022-11-15T04:42:15.227Z,100625.31
2022-11-15T04:44:45.520Z,100624.00
2022-11-15T04:47:16.124Z,100621.03
2022-11-15T04:49:46.700Z,100628.78
2022-11-15T04:52:20.975Z,100633.53
2022-11-15T04:54:52.387Z,100624.72
2022-11-15T04:57:23.679Z,100624.25
2022-11-15T04:59:53.984Z,100624.59
2022-11-15T05:02:24.654Z,100620.31
2022-11-15T05:04:52.307Z,100626.50
2022-11-15T05:07:25.630Z,100619.63
2022-11-15T05:09:56.359Z,100610.56
2022-11-15T05:12:26.732Z,100602.22
2022-11-15T05:14:56.767Z,100609.00
2022-11-15T05:17:27.113Z,100619.72
2022-11-15T05:19:57.216Z,100618.44
2022-11-15T05:22:31.000Z,100617.50
2022-11-15T05:25:01.047Z,100608.44
2022-11-15T05:27:31.397Z,100606.06
2022-11-15T05:30:01.350Z,100606.41
2022-11-15T05:32:32.427Z,100605.34
2022-11-15T05:35:02.592Z,100612.00
2022-11-15T05:37:36.245Z,100617.09
2022-11-15T05:40:07.375Z,100618.06
2022-11-15T05:42:37.734Z,100615.81
2022-11-15T05:45:10.404Z,100620.19
2022-11-15T05:47:43.190Z,100620.69
2022-11-15T05:50:16.563Z,100620.22
2022-11-15T05:52:50.345Z,100626.28
2022-11-15T05:55:20.474Z,100622.59
2022-11-15T05:57:51.022Z,100622.81
2022-11-15T06:00:21.938Z,100620.09
2022-11-15T06:02:52.337Z,100615.94
2022-11-15T06:05:22.383Z,100621.41
2022-11-15T06:07:55.500Z,100623.53
2022-11-15T06:10:25.550Z,100619.03
2022-11-15T06:13:00.961Z,100621.41
2022-11-15T06:15:31.189Z,100616.66
2022-11-15T06:18:02.149Z,100617.84
2022-11-15T06:20:33.589Z,100627.81
2022-11-15T06:23:08.458Z,100635.31
2022-11-15T06:25:38.530Z,100635.66
2022-11-15T06:28:08.846Z,100635.78
2022-11-15T06:30:39.047Z,100637.44
2022-11-15T06:33:09.826Z,100641.38
2022-11-15T06:35:40.455Z,100640.44
2022-11-15T06:38:14.643Z,100631.25
2022-11-15T06:40:44.812Z,100632.31
2022-11-15T06:43:15.694Z,100629.84
2022-11-15T06:45:45.814Z,100639.13
2022-11-15T06:48:16.131Z,100641.25
2022-11-15T06:50:46.250Z,100638.03
2022-11-15T06:53:19.193Z,100636.25
2022-11-15T06:55:54.923Z,100640.66
2022-11-15T06:58:25.646Z,100643.88
2022-11-15T07:00:56.277Z,100649.09
2022-11-15T07:03:26.726Z,100645.78
2022-11-15T07:06:01.422Z,100643.63
2022-11-15T07:08:39.234Z,100638.63
2022-11-15T07:11:11.884Z,100630.91
2022-11-15T07:13:42.616Z,100648.59
2022-11-15T07:16:14.219Z,100652.88
2022-11-15T07:18:44.724Z,100658.84
2022-11-15T07:21:14.939Z,100654.09
2022-11-15T07:23:48.095Z,100653.72
2022-11-15T07:26:18.145Z,100658.63
2022-11-15T07:28:48.513Z,100665.03
2022-11-15T07:31:18.750Z,100655.03
2022-11-15T07:33:49.052Z,100652.19
2022-11-15T07:36:19.105Z,100658.63
2022-11-15T07:38:52.197Z,100660.78
2022-11-15T07:41:22.208Z,100657.06
2022-11-15T07:43:55.408Z,100660.91
2022-11-15T07:46:25.389Z,100663.03
2022-11-15T07:48:55.766Z,100660.63
2022-11-15T07:51:25.782Z,100661.25
2022-11-15T07:53:58.860Z,100669.44
2022-11-15T07:56:28.884Z,100660.03
2022-11-15T07:59:00.228Z,100659.56
2022-11-15T08:01:30.308Z,100649.56
2022-11-15T08:04:00.709Z,100647.06
2022-11-15T08:06:31.181Z,100644.63
2022-11-15T08:09:04.196Z,100641.53
2022-11-15T08:11:34.326Z,100641.72
2022-11-15T08:14:04.812Z,100640.16
2022-11-15T08:16:35.010Z,100640.34
2022-11-15T08:19:05.475Z,100639.59
2022-11-15T08:21:36.182Z,100639.78
2022-11-15T08:24:09.840Z,100642.59
2022-11-15T08:26:40.504Z,100640.81
2022-11-15T08:29:11.243Z,100636.47
2022-11-15T08:31:44.026Z,100639.41
2022-11-15T08:34:14.330Z,100633.25
2022-11-15T08:36:46.161Z,100632.41
2022-11-15T08:39:19.392Z,100633.28
2022-11-15T08:41:49.572Z,100634.50
2022-11-15T08:44:19.926Z,100638.03
2022-11-15T08:46:49.853Z,100628.66
2022-11-15T08:49:20.365Z,100632.81
2022-11-15T08:51:50.400Z,100628.06
2022-11-15T08:54:23.298Z,100634.03
2022-11-15T08:56:53.281Z,100639.16
2022-11-15T08:59:23.667Z,100637.47
2022-11-15T09:01:53.860Z,100633.09
2022-11-15T09:04:24.521Z,100642.91
2022-11-15T09:06:54.586Z,100641.94
2022-11-15T09:09:27.595Z,100639.91
2022-11-15T09:12:01.415Z,100640.84
2022-11-15T09:14:33.510Z,100635.56
2022-11-15T09:17:04.139Z,100638.75
2022-11-15T09:19:34.816Z,100630.09
2022-11-15T09:22:05.160Z,100631.66
2022-11-15T09:24:38.560Z,100630.66
2022-11-15T09:27:08.549Z,100631.84
2022-11-15T09:29:38.903Z,100634.25
2022-11-15T09:32:09.085Z,100637.75
2022-11-15T09:34:39.387Z,100632.94
2022-11-15T09:37:09.432Z,100648.22
2022-11-15T09:39:42.318Z,100640.81
2022-11-15T09:42:27.956Z,100652.88
2022-11-15T09:45:13.315Z,100646.59
2022-11-15T09:48:05.607Z,100647.59
2022-11-15T09:50:43.271Z,100643.19
2022-11-15T09:53:17.039Z,100638.88
2022-11-15T09:56:00.038Z,100640.53
2022-11-15T09:58:37.143Z,100642.22
2022-11-15T10:01:15.658Z,100632.34
2022-11-15T10:03:46.661Z,100640.13
2022-11-15T10:06:26.546Z,100624.88
2022-11-15T10:09:04.751Z,100628.03
2022-11-15T10:11:40.287Z,100618.34
2022-11-15T10:14:15.241Z,100618.44
2022-11-15T10:17:10.371Z,100611.16
2022-11-15T10:19:50.131Z,100605.91
2022-11-15T10:22:30.736Z,100603.34
2022-11-15T10:25:14.870Z,100589.59
2022-11-15T10:27:53.953Z,100586.13
2022-11-15T10:30:24.626Z,100589.03
2022-11-15T10:32:54.941Z,100581.75
2022-11-15T10:35:28.314Z,100577.63
2022-11-15T10:38:09.816Z,100574.47
2022-11-15T10:40:40.899Z,100571.34
2022-11-15T10:43:21.579Z,100561.59
2022-11-15T10:45:53.844Z,100558.13
2022-11-15T10:48:29.210Z,100553.66
2022-11-15T10:51:00.056Z,100554.63
2022-11-15T10:53:35.970Z,100546.22
2022-11-15T10:56:09.239Z,100547.34
2022-11-15T10:58:45.659Z,100543.88
2022-11-15T11:01:19.810Z,100547.38
2022-11-15T11:04:02.765Z,100555.25
2022-11-15T11:06:34.184Z,100546.34
2022-11-15T11:09:06.578Z,100534.97
2022-11-15T11:11:49.879Z,100533.03
2022-11-15T11:14:28.155Z,100527.09
2022-11-15T11:17:03.348Z,100527.34
2022-11-15T11:20:00.804Z,100528.28
2022-11-15T11:22:38.530Z,100529.94
2022-11-15T11:25:23.042Z,100514.22
2022-11-15T11:28:08.493Z,100511.38
2022-11-15T11:30:52.095Z,100511.91
2022-11-15T11:33:25.909Z,100517.59
2022-11-15T11:36:07.692Z,100512.59
2022-11-15T11:38:55.983Z,100509.03
2022-11-15T11:41:42.754Z,100494.75
2022-11-15T11:44:28.382Z,100495.38
2022-11-15T11:47:05.006Z,100490.06
2022-11-15T11:49:41.950Z,100498.81
2022-11-15T11:52:19.547Z,100498.28
2022-11-15T11:54:59.025Z,100498.38
2022-11-15T11:57:40.915Z,100495.41
2022-11-15T12:00:21.559Z,100488.69
2022-11-15T12:03:07.106Z,100493.97
2022-11-15T12:05:43.113Z,100494.81
2022-11-15T12:08:31.851Z,100489.41
2022-11-15T12:11:10.668Z,100485.84
2022-11-15T12:13:42.918Z,100475.47
2022-11-15T12:16:18.973Z,100469.78
2022-11-15T12:22:39.411Z,100468.81
2022-11-15T12:25:19.411Z,100464.53
2022-11-15T12:27:54.527Z,100459.78
2022-11-15T12:30:26.446Z,100454.06
2022-11-15T12:32:59.888Z,100449.09
2022-11-15T12:35:39.165Z,100456.31
2022-11-15T12:38:14.129Z,100449.44
2022-11-15T12:41:18.389Z,100444.00
2022-11-15T12:43:49.727Z,100451.16
2022-11-15T12:46:25.925Z,100441.88
2022-11-15T12:49:00.713Z,100438.19
2022-11-15T12:52:07.591Z,100436.91
2022-11-15T12:55:03.031Z,100436.00
2022-11-15T12:57:42.676Z,100432.03
2022-11-15T13:00:48.765Z,100421.22
2022-11-15T13:03:28.205Z,100423.88
2022-11-15T13:06:13.858Z,100422.03
2022-11-15T13:08:53.485Z,100424.91
2022-11-15T13:11:57.082Z,100424.06
2022-11-15T13:14:43.502Z,100415.53
2022-11-15T13:17:30.877Z,100415.94
2022-11-15T13:20:05.689Z,100414.06
2022-11-15T13:22:55.810Z,100417.97
2022-11-15T13:25:51.960Z,100415.72
2022-11-15T13:28:31.567Z,100410.53
2022-11-15T13:31:04.187Z,100409.09
2022-11-15T13:33:37.649Z,100401.94
2022-11-15T13:36:12.960Z,100406.38
2022-11-15T13:38:44.685Z,100399.66
2022-11-15T13:41:22.415Z,100397.22
2022-11-15T13:43:56.448Z,100401.09
2022-11-15T13:46:28.317Z,100405.41
2022-11-15T13:49:01.136Z,100392.47
2022-11-15T13:51:38.564Z,100400.66
2022-11-15T13:54:20.810Z,100401.44
2022-11-15T13:56:56.878Z,100396.16
2022-11-15T13:59:33.081Z,100397.56
2022-11-15T14:02:14.924Z,100404.19
2022-11-15T14:04:51.788Z,100399.66
2022-11-15T14:07:24.084Z,100389.56
2022-11-15T14:09:54.772Z,100391.25
2022-11-15T14:12:34.573Z,100397.25
2022-11-15T14:15:29.762Z,100399.03
2022-11-15T14:18:00.300Z,100394.28
2022-11-15T14:20:36.620Z,100406.59
2022-11-15T14:23:09.755Z,100410.78
2022-11-15T14:25:40.155Z,100410.53
2022-11-15T14:28:34.408Z,100400.06
2022-11-15T14:31:15.827Z,100399.69
2022-11-15T14:33:46.360Z,100398.00
2022-11-15T14:36:19.210Z,100392.91
2022-11-15T14:38:50.347Z,100398.03
2022-11-15T14:41:23.638Z,100397.63
2022-11-15T14:43:54.960Z,100392.06
2022-11-15T14:46:27.733Z,100391.06
2022-11-15T14:48:58.029Z,100384.28
2022-11-15T14:51:28.314Z,100387.78
2022-11-15T14:53:59.009Z,100385.00
2022-11-15T14:56:29.130Z,100385.28
2022-11-15T14:59:00.229Z,100378.19
2022-11-15T15:01:33.057Z,100375.88
2022-11-15T15:04:03.714Z,100363.69
2022-11-15T15:06:34.321Z,100369.22
2022-11-15T15:09:05.255Z,100368.47
2022-11-15T15:11:35.728Z,100361.78
2022-11-15T15:14:06.145Z,100363.84
2022-11-15T15:16:38.996Z,100361.16
2022-11-15T15:19:09.301Z,100360.38
2022-11-15T15:21:39.353Z,100357.94
2022-11-15T15:24:09.891Z,100359.13
2022-11-15T15:26:40.216Z,100369.59
2022-11-15T15:29:11.427Z,100363.94
2022-11-15T15:31:44.311Z,100358.31
2022-11-15T15:34:16.859Z,100362.72
2022-11-15T15:36:47.533Z,100351.38
2022-11-15T15:39:18.319Z,100354.69
2022-11-15T15:41:51.278Z,100354.72
2022-11-15T15:44:25.731Z,100348.16
2022-11-15T15:46:58.916Z,100344.16
2022-11-15T15:49:29.623Z,100341.06
2022-11-15T15:52:00.002Z,100345.19
2022-11-15T15:54:30.583Z,100343.78
2022-11-15T15:57:00.982Z,100341.97
2022-11-15T15:59:31.658Z,100332.38
2022-11-15T16:02:04.602Z,100334.31
2022-11-15T16:04:35.367Z,100336.97
2022-11-15T16:07:06.304Z,100331.13
2022-11-15T16:09:49.437Z,100327.00
2022-11-15T16:12:20.062Z,100327.44
2022-11-15T16:14:50.858Z,100330.38
2022-11-15T16:17:30.137Z,100329.94
2022-11-15T16:20:04.606Z,100330.56
2022-11-15T16:22:34.594Z,100330.13
2022-11-15T16:25:04.878Z,100329.50
2022-11-15T16:27:34.981Z,100320.78
2022-11-15T16:30:05.255Z,100321.88
2022-11-15T16:32:37.978Z,100319.03
2022-11-15T16:35:09.001Z,100318.97
2022-11-15T16:37:40.849Z,100327.66
2022-11-15T16:40:24.055Z,100321.53
2022-11-15T16:42:54.054Z,100325.19
2022-11-15T16:45:24.695Z,100326.56
2022-11-15T16:47:57.487Z,100318.03
2022-11-15T16:50:30.659Z,100314.13
2022-11-15T16:53:02.437Z,100322.59
2022-11-15T16:55:32.984Z,100319.97
2022-11-15T16:58:02.955Z,100319.44
2022-11-15T17:00:33.453Z,100310.47
2022-11-15T17:03:06.231Z,100303.50
2022-11-15T17:05:36.561Z,100301.66
2022-11-15T17:08:06.613Z,100302.28
2022-11-15T17:10:37.271Z,100304.84
2022-11-15T17:13:07.384Z,100305.41
2022-11-15T17:15:37.645Z,100302.28
2022-11-15T17:18:11.904Z,100295.47
2022-11-15T17:20:43.887Z,100296.03
2022-11-15T17:23:17.618Z,100287.69
2022-11-15T17:25:48.271Z,100292.81
2022-11-15T17:28:18.650Z,100291.59
2022-11-15T17:30:48.979Z,100296.63
2022-11-15T17:33:21.523Z,100290.69
2022-11-15T17:35:58.894Z,100297.66
2022-11-15T17:38:29.989Z,100291.66
2022-11-15T17:41:04.817Z,100292.44
2022-11-15T17:43:36.979Z,100292.81
2022-11-15T17:46:09.109Z,100292.59
2022-11-15T17:48:44.891Z,100289.78
2022-11-15T17:51:17.284Z,100291.53
2022-11-15T17:53:49.258Z,100293.25
2022-11-15T17:56:21.479Z,100287.06
2022-11-15T17:58:52.839Z,100283.69
2022-11-15T18:01:25.794Z,100286.69
2022-11-15T18:04:00.662Z,100280.31
2022-11-15T18:06:33.021Z,100286.25
2022-11-15T18:09:03.909Z,100286.09
2022-11-15T18:11:35.824Z,100283.41
2022-11-15T18:14:09.666Z,100284.41
2022-11-15T18:16:40.855Z,100277.03
2022-11-15T18:19:14.143Z,100275.72
2022-11-15T18:22:04.353Z,100279.78
2022-11-15T18:24:38.581Z,100272.69
2022-11-15T18:27:09.970Z,100271.03
2022-11-15T18:29:40.381Z,100268.09
2022-11-15T18:32:15.275Z,100262.75
2022-11-15T18:34:48.388Z,100263.00
2022-11-15T18:37:19.123Z,100268.19
2022-11-15T18:39:52.830Z,100267.34
2022-11-15T18:42:24.645Z,100258.75
2022-11-15T18:44:54.960Z,100261.91
2022-11-15T18:47:25.577Z,100263.78
2022-11-15T18:49:59.704Z,100259.34
2022-11-15T18:52:30.476Z,100259.47
2022-11-15T18:55:01.199Z,100264.41
2022-11-15T18:57:31.812Z,100261.31
2022-11-15T19:00:02.198Z,100257.69
2022-11-15T19:02:33.282Z,100262.47
2022-11-15T19:05:22.798Z,100258.19
2022-11-15T19:08:04.282Z,100250.75
2022-11-15T19:10:34.709Z,100261.78
2022-11-15T19:13:05.487Z,100253.88
2022-11-15T19:15:35.724Z,100255.53
2022-11-15T19:18:06.412Z,100260.06
2022-11-15T19:20:40.974Z,100260.59
2022-11-15T19:23:11.755Z,100257.31
2022-11-15T19:25:42.018Z,100254.72
2022-11-15T19:28:13.142Z,100255.53
2022-11-15T19:30:43.543Z,100258.81
2022-11-15T19:33:14.290Z,100258.63
2022-11-15T19:35:47.702Z,100264.44
2022-11-15T19:38:18.314Z,100255.88
2022-11-15T19:40:48.909Z,100250.44
2022-11-15T19:43:19.567Z,100254.00
2022-11-15T19:45:59.527Z,100249.28
2022-11-15T19:48:34.322Z,100247.88
2022-11-15T19:51:09.306Z,100245.34
2022-11-15T19:53:40.508Z,100258.84
2022-11-15T19:56:13.839Z,100248.63
2022-11-15T19:58:45.196Z,100248.91
2022-11-15T20:01:20.399Z,100253.91
2022-11-15T20:03:54.072Z,100261.97
2022-11-15T20:06:28.946Z,100257.78
2022-11-15T20:09:00.024Z,100251.09
2022-11-15T20:11:30.425Z,100257.25
2022-11-15T20:14:02.267Z,100252.31
2022-11-15T20:16:33.488Z,100262.94
2022-11-15T20:19:03.969Z,100262.38
2022-11-15T20:21:36.691Z,100256.03
2022-11-15T20:24:08.415Z,100252.16
2022-11-15T20:26:38.941Z,100254.66
2022-11-15T20:29:10.264Z,100253.50
2022-11-15T20:31:40.245Z,100248.22
2022-11-15T20:34:10.772Z,100246.88
2022-11-15T20:36:43.560Z,100249.06
2022-11-15T20:39:14.126Z,100253.38
2022-11-15T20:41:44.373Z,100249.50
2022-11-15T20:44:14.744Z,100249.84
2022-11-15T20:46:44.832Z,100253.13
2022-11-15T20:49:15.422Z,100256.41
2022-11-15T20:51:49.700Z,100250.09
2022-11-15T20:54:22.346Z,100256.78
2022-11-15T20:56:52.330Z,100249.66
2022-11-15T20:59:22.879Z,100243.72
2022-11-15T21:01:53.120Z,100239.97
2022-11-15T21:04:24.114Z,100249.19
2022-11-15T21:06:58.095Z,100244.75
2022-11-15T21:09:41.021Z,100245.38
2022-11-15T21:12:14.655Z,100246.91
2022-11-15T21:14:48.959Z,100245.88
2022-11-15T21:17:19.083Z,100244.34
2022-11-15T21:19:49.823Z,100249.59
2022-11-15T21:22:22.448Z,100244.59
2022-11-15T21:24:53.277Z,100239.97
2022-11-15T21:27:23.237Z,100233.00
2022-11-15T21:29:53.668Z,100228.84
2022-11-15T21:32:24.229Z,100229.41
2022-11-15T21:34:54.644Z,100238.31
2022-11-15T21:37:27.323Z,100236.94
2022-11-15T21:40:05.554Z,100236.72
2022-11-15T21:42:36.209Z,100227.56
2022-11-15T21:45:07.398Z,100220.84
2022-11-15T21:47:39.098Z,100216.41
2022-11-15T21:50:12.509Z,100210.66
2022-11-15T21:52:47.039Z,100204.09
2022-11-15T21:55:17.435Z,100210.69
2022-11-15T21:57:47.428Z,100215.75
2022-11-15T22:00:32.567Z,100217.31
2022-11-15T22:03:02.641Z,100216.84
2022-11-15T22:05:33.340Z,100219.88
2022-11-15T22:08:05.967Z,100212.38
2022-11-15T22:10:36.645Z,100215.38
2022-11-15T22:13:06.949Z,100210.63
2022-11-15T22:15:39.825Z,100206.94
2022-11-15T22:18:10.374Z,100198.31
2022-11-15T22:20:45.336Z,100215.72
2022-11-15T22:23:18.656Z,100203.81
2022-11-15T22:25:49.483Z,100208.09
2022-11-15T22:28:20.423Z,100211.41
2022-11-15T22:30:52.341Z,100212.69
2022-11-15T22:33:24.366Z,100206.88
2022-11-15T22:35:55.952Z,100194.03
2022-11-15T22:38:29.819Z,100198.00
2022-11-15T22:41:01.067Z,100200.13
2022-11-15T22:43:31.835Z,100192.66
2022-11-15T22:46:04.961Z,100202.91
2022-11-15T22:48:37.837Z,100204.31
2022-11-15T22:51:09.902Z,100191.88
2022-11-15T22:53:43.195Z,100188.69
2022-11-15T22:56:19.038Z,100185.81
2022-11-15T22:58:50.643Z,100182.63
2022-11-15T23:01:23.956Z,100186.69
2022-11-15T23:03:54.632Z,100181.19
2022-11-15T23:06:25.542Z,100185.03
2022-11-15T23:08:58.546Z,100185.25
2022-11-15T23:11:41.740Z,100174.13
2022-11-15T23:14:12.192Z,100165.78
2022-11-15T23:16:40.611Z,100169.19
2022-11-15T23:19:13.700Z,100163.09
2022-11-15T23:21:58.427Z,100163.75
2022-11-15T23:24:32.213Z,100160.97
2022-11-15T23:27:06.353Z,100148.00
2022-11-15T23:29:58.108Z,100144.50
2022-11-15T23:32:41.348Z,100145.41
2022-11-15T23:35:12.604Z,100150.13
2022-11-15T23:37:43.480Z,100150.28
2022-11-15T23:40:17.074Z,100148.16
2022-11-15T23:42:47.991Z,100142.22
2022-11-15T23:45:18.450Z,100157.00
2022-11-15T23:47:49.205Z,100163.53
2022-11-15T23:50:20.131Z,100155.94
2022-11-15T23:52:50.576Z,100150.78
2022-11-15T23:55:23.259Z,100153.69
2022-11-15T23:57:53.781Z,100145.97
